sensor_id;sensor_type;location;lat;lon;timestamp;pressure;altitude;pressure_sealevel;temperature;humidity
76827;BME280;65788;52.284;20.890;2023-08-17T00:01:10;100748.16;;;27.89;53.65
76827;BME280;65788;52.284;20.890;2023-08-17T00:03:37;100753.92;;;27.83;52.89
76827;BME280;65788;52.284;20.890;2023-08-17T00:06:03;100755.09;;;27.73;53.16
76827;BME280;65788;52.284;20.890;2023-08-17T00:08:30;100755.21;;;27.75;53.36
76827;BME280;65788;52.284;20.890;2023-08-17T00:10:57;100755.98;;;27.88;53.18
76827;BME280;65788;52.284;20.890;2023-08-17T00:13:24;100758.42;;;27.93;53.17
76827;BME280;65788;52.284;20.890;2023-08-17T00:15:51;100760.33;;;27.91;53.78
76827;BME280;65788;52.284;20.890;2023-08-17T00:18:18;100756.77;;;27.97;53.67
76827;BME280;65788;52.284;20.890;2023-08-17T00:20:44;100760.58;;;28.02;53.24
76827;BME280;65788;52.284;20.890;2023-08-17T00:23:12;100758.96;;;27.97;53.39
76827;BME280;65788;52.284;20.890;2023-08-17T00:25:39;100758.95;;;27.69;54.14
76827;BME280;65788;52.284;20.890;2023-08-17T00:28:06;100760.64;;;27.53;54.76
76827;BME280;65788;52.284;20.890;2023-08-17T00:30:33;100761.64;;;27.37;55.42
76827;BME280;65788;52.284;20.890;2023-08-17T00:33:03;100758.16;;;27.24;55.92
76827;BME280;65788;52.284;20.890;2023-08-17T00:35:30;100757.94;;;27.18;56.24
76827;BME280;65788;52.284;20.890;2023-08-17T00:37:59;100760.52;;;27.23;56.06
76827;BME280;65788;52.284;20.890;2023-08-17T00:40:26;100751.30;;;27.24;56.00
76827;BME280;65788;52.284;20.890;2023-08-17T00:42:53;100754.30;;;27.26;55.87
76827;BME280;65788;52.284;20.890;2023-08-17T00:45:23;100757.83;;;27.25;55.81
76827;BME280;65788;52.284;20.890;2023-08-17T00:47:50;100756.90;;;27.22;55.81
76827;BME280;65788;52.284;20.890;2023-08-17T00:50:18;100760.17;;;27.23;55.73
76827;BME280;65788;52.284;20.890;2023-08-17T00:52:45;100757.31;;;27.17;55.86
76827;BME280;65788;52.284;20.890;2023-08-17T00:55:12;100763.84;;;27.11;56.08
76827;BME280;65788;52.284;20.890;2023-08-17T00:57:40;100770.65;;;27.14;55.95
76827;BME280;65788;52.284;20.890;2023-08-17T01:00:10;100775.69;;;27.13;56.10
76827;BME280;65788;52.284;20.890;2023-08-17T01:02:38;100774.09;;;26.98;56.76
76827;BME280;65788;52.284;20.890;2023-08-17T01:05:06;100771.14;;;26.84;57.32
76827;BME280;65788;52.284;20.890;2023-08-17T01:07:32;100769.35;;;26.95;56.91
76827;BME280;65788;52.284;20.890;2023-08-17T01:10:00;100772.33;;;27.01;56.78
76827;BME280;65788;52.284;20.890;2023-08-17T01:12:32;100768.33;;;27.00;56.79
76827;BME280;65788;52.284;20.890;2023-08-17T01:15:14;100772.70;;;26.99;56.83
76827;BME280;65788;52.284;20.890;2023-08-17T01:17:46;100770.23;;;26.94;56.98
76827;BME280;65788;52.284;20.890;2023-08-17T01:20:16;100770.61;;;26.92;57.07
76827;BME280;65788;52.284;20.890;2023-08-17T01:22:45;100769.03;;;26.91;57.12
76827;BME280;65788;52.284;20.890;2023-08-17T01:25:12;100769.86;;;26.91;57.16
76827;BME280;65788;52.284;20.890;2023-08-17T01:27:41;100763.11;;;26.85;57.35
76827;BME280;65788;52.284;20.890;2023-08-17T01:30:11;100766.84;;;26.86;57.34
76827;BME280;65788;52.284;20.890;2023-08-17T01:32:44;100763.20;;;26.87;57.25
76827;BME280;65788;52.284;20.890;2023-08-17T01:35:31;100763.95;;;26.85;57.31
76827;BME280;65788;52.284;20.890;2023-08-17T01:38:04;100761.03;;;26.80;57.54
76827;BME280;65788;52.284;20.890;2023-08-17T01:40:34;100756.91;;;26.81;57.48
76827;BME280;65788;52.284;20.890;2023-08-17T01:43:04;100756.61;;;26.81;57.48
76827;BME280;65788;52.284;20.890;2023-08-17T01:45:32;100749.42;;;26.79;57.56
76827;BME280;65788;52.284;20.890;2023-08-17T01:47:59;100746.59;;;26.78;57.60
76827;BME280;65788;52.284;20.890;2023-08-17T01:50:28;100749.63;;;26.51;58.72
76827;BME280;65788;52.284;20.890;2023-08-17T01:52:55;100754.77;;;26.41;58.96
76827;BME280;65788;52.284;20.890;2023-08-17T01:55:22;100760.95;;;26.65;58.16
76827;BME280;65788;52.284;20.890;2023-08-17T01:57:51;100764.84;;;26.70;58.00
76827;BME280;65788;52.284;20.890;2023-08-17T02:00:19;100764.33;;;26.69;57.98
76827;BME280;65788;52.284;20.890;2023-08-17T02:02:46;100758.18;;;26.68;57.99
76827;BME280;65788;52.284;20.890;2023-08-17T02:05:13;100765.40;;;26.65;58.09
76827;BME280;65788;52.284;20.890;2023-08-17T02:07:40;100769.61;;;26.46;58.77
76827;BME280;65788;52.284;20.890;2023-08-17T02:10:08;100773.52;;;26.20;59.69
76827;BME280;65788;52.284;20.890;2023-08-17T02:12:34;100764.73;;;26.46;58.79
76827;BME280;65788;52.284;20.890;2023-08-17T02:15:01;100759.71;;;26.54;58.50
76827;BME280;65788;52.284;20.890;2023-08-17T02:17:28;100749.40;;;26.56;58.36
76827;BME280;65788;52.284;20.890;2023-08-17T02:19:55;100746.16;;;26.56;58.33
76827;BME280;65788;52.284;20.890;2023-08-17T02:22:22;100751.98;;;26.55;58.34
76827;BME280;65788;52.284;20.890;2023-08-17T02:24:49;100749.13;;;26.51;58.45
76827;BME280;65788;52.284;20.890;2023-08-17T02:27:16;100747.77;;;26.46;58.51
76827;BME280;65788;52.284;20.890;2023-08-17T02:29:43;100754.40;;;26.46;58.40
76827;BME280;65788;52.284;20.890;2023-08-17T02:32:10;100745.73;;;26.45;58.46
76827;BME280;65788;52.284;20.890;2023-08-17T02:34:37;100754.45;;;26.46;58.33
76827;BME280;65788;52.284;20.890;2023-08-17T02:37:06;100749.55;;;26.49;58.24
76827;BME280;65788;52.284;20.890;2023-08-17T02:39:34;100751.14;;;26.51;58.12
76827;BME280;65788;52.284;20.890;2023-08-17T02:42:01;100753.85;;;26.52;58.05
76827;BME280;65788;52.284;20.890;2023-08-17T02:44:28;100756.50;;;26.48;58.17
76827;BME280;65788;52.284;20.890;2023-08-17T02:46:55;100754.11;;;26.40;58.40
76827;BME280;65788;52.284;20.890;2023-08-17T02:49:24;100746.95;;;26.43;58.23
76827;BME280;65788;52.284;20.890;2023-08-17T02:51:51;100739.61;;;26.44;58.12
76827;BME280;65788;52.284;20.890;2023-08-17T02:54:20;100736.31;;;26.41;58.18
76827;BME280;65788;52.284;20.890;2023-08-17T02:56:47;100742.35;;;26.38;58.23
76827;BME280;65788;52.284;20.890;2023-08-17T02:59:14;100739.77;;;26.34;58.26
76827;BME280;65788;52.284;20.890;2023-08-17T03:01:41;100744.23;;;26.31;58.31
76827;BME280;65788;52.284;20.890;2023-08-17T03:04:10;100754.62;;;26.28;58.34
76827;BME280;65788;52.284;20.890;2023-08-17T03:06:36;100760.65;;;26.30;58.20
76827;BME280;65788;52.284;20.890;2023-08-17T03:09:03;100761.93;;;26.34;58.10
76827;BME280;65788;52.284;20.890;2023-08-17T03:11:30;100766.08;;;26.34;58.10
76827;BME280;65788;52.284;20.890;2023-08-17T03:13:57;100769.08;;;26.35;58.19
76827;BME280;65788;52.284;20.890;2023-08-17T03:16:28;100771.20;;;26.18;58.85
76827;BME280;65788;52.284;20.890;2023-08-17T03:18:56;100774.34;;;26.09;59.07
76827;BME280;65788;52.284;20.890;2023-08-17T03:21:23;100774.81;;;26.14;58.86
76827;BME280;65788;52.284;20.890;2023-08-17T03:23:50;100774.60;;;26.16;58.74
76827;BME280;65788;52.284;20.890;2023-08-17T03:26:17;100780.23;;;26.22;58.42
76827;BME280;65788;52.284;20.890;2023-08-17T03:28:44;100778.19;;;26.24;58.33
76827;BME280;65788;52.284;20.890;2023-08-17T03:31:12;100786.41;;;26.23;58.40
76827;BME280;65788;52.284;20.890;2023-08-17T03:33:39;100788.59;;;26.18;58.54
76827;BME280;65788;52.284;20.890;2023-08-17T03:36:07;100792.16;;;26.16;58.71
76827;BME280;65788;52.284;20.890;2023-08-17T03:38:34;100791.51;;;26.17;58.81
76827;BME280;65788;52.284;20.890;2023-08-17T03:41:01;100799.20;;;26.18;58.78
76827;BME280;65788;52.284;20.890;2023-08-17T03:43:28;100796.59;;;26.13;59.01
76827;BME280;65788;52.284;20.890;2023-08-17T03:45:55;100794.89;;;25.97;59.37
76827;BME280;65788;52.284;20.890;2023-08-17T03:48:22;100794.19;;;25.95;59.40
76827;BME280;65788;52.284;20.890;2023-08-17T03:50:53;100792.98;;;26.00;59.29
76827;BME280;65788;52.284;20.890;2023-08-17T03:53:23;100790.09;;;25.95;59.40
76827;BME280;65788;52.284;20.890;2023-08-17T03:55:52;100791.50;;;25.80;59.88
76827;BME280;65788;52.284;20.890;2023-08-17T03:58:19;100792.38;;;25.76;60.07
76827;BME280;65788;52.284;20.890;2023-08-17T04:00:50;100795.20;;;25.85;59.64
76827;BME280;65788;52.284;20.890;2023-08-17T04:03:19;100800.53;;;25.85;59.52
76827;BME280;65788;52.284;20.890;2023-08-17T04:05:46;100801.91;;;25.79;59.64
76827;BME280;65788;52.284;20.890;2023-08-17T04:08:12;100792.04;;;25.76;59.70
76827;BME280;65788;52.284;20.890;2023-08-17T04:10:39;100793.37;;;25.71;59.79
76827;BME280;65788;52.284;20.890;2023-08-17T04:13:06;100792.13;;;25.74;59.74
76827;BME280;65788;52.284;20.890;2023-08-17T04:15:33;100804.04;;;25.72;59.80
76827;BME280;65788;52.284;20.890;2023-08-17T04:18:00;100801.90;;;25.36;60.96
76827;BME280;65788;52.284;20.890;2023-08-17T04:20:27;100809.01;;;25.44;60.82
76827;BME280;65788;52.284;20.890;2023-08-17T04:22:54;100800.31;;;25.60;60.23
76827;BME280;65788;52.284;20.890;2023-08-17T04:25:23;100802.80;;;25.71;59.89
76827;BME280;65788;52.284;20.890;2023-08-17T04:27:50;100809.04;;;25.70;59.98
76827;BME280;65788;52.284;20.890;2023-08-17T04:30:18;100808.81;;;25.66;60.12
76827;BME280;65788;52.284;20.890;2023-08-17T04:32:45;100805.40;;;25.67;60.15
76827;BME280;65788;52.284;20.890;2023-08-17T04:35:20;100803.33;;;25.66;60.12
76827;BME280;65788;52.284;20.890;2023-08-17T04:37:47;100804.70;;;25.61;60.21
76827;BME280;65788;52.284;20.890;2023-08-17T04:40:14;100802.74;;;25.65;59.93
76827;BME280;65788;52.284;20.890;2023-08-17T04:42:41;100802.93;;;25.66;59.75
76827;BME280;65788;52.284;20.890;2023-08-17T04:45:09;100803.19;;;25.58;59.81
76827;BME280;65788;52.284;20.890;2023-08-17T04:47:36;100803.90;;;25.64;59.45
76827;BME280;65788;52.284;20.890;2023-08-17T04:50:04;100805.38;;;25.68;59.16
76827;BME280;65788;52.284;20.890;2023-08-17T04:52:31;100803.96;;;25.68;59.05
76827;BME280;65788;52.284;20.890;2023-08-17T04:54:58;100807.02;;;25.66;59.01
76827;BME280;65788;52.284;20.890;2023-08-17T04:57:25;100806.27;;;25.71;58.85
76827;BME280;65788;52.284;20.890;2023-08-17T04:59:53;100808.08;;;25.76;58.62
76827;BME280;65788;52.284;20.890;2023-08-17T05:02:20;100811.50;;;25.80;58.44
76827;BME280;65788;52.284;20.890;2023-08-17T05:04:46;100812.94;;;25.83;58.25
76827;BME280;65788;52.284;20.890;2023-08-17T05:07:14;100809.64;;;25.82;58.17
76827;BME280;65788;52.284;20.890;2023-08-17T05:09:40;100809.98;;;25.83;58.06
76827;BME280;65788;52.284;20.890;2023-08-17T05:12:07;100816.05;;;25.74;58.15
76827;BME280;65788;52.284;20.890;2023-08-17T05:14:35;100814.99;;;25.80;58.02
76827;BME280;65788;52.284;20.890;2023-08-17T05:17:02;100816.40;;;25.85;57.67
76827;BME280;65788;52.284;20.890;2023-08-17T05:19:29;100814.60;;;25.88;57.42
76827;BME280;65788;52.284;20.890;2023-08-17T05:21:57;100817.55;;;25.86;57.08
76827;BME280;65788;52.284;20.890;2023-08-17T05:24:24;100818.64;;;25.85;56.85
76827;BME280;65788;52.284;20.890;2023-08-17T05:26:53;100820.51;;;25.79;56.54
76827;BME280;65788;52.284;20.890;2023-08-17T05:29:20;100819.02;;;25.69;56.46
76827;BME280;65788;52.284;20.890;2023-08-17T05:31:47;100817.37;;;25.75;56.33
76827;BME280;65788;52.284;20.890;2023-08-17T05:34:14;100817.27;;;25.79;56.15
76827;BME280;65788;52.284;20.890;2023-08-17T05:36:41;100816.23;;;25.81;55.95
76827;BME280;65788;52.284;20.890;2023-08-17T05:39:09;100816.57;;;25.81;55.89
76827;BME280;65788;52.284;20.890;2023-08-17T05:41:38;100816.70;;;25.72;55.97
76827;BME280;65788;52.284;20.890;2023-08-17T05:44:08;100813.88;;;25.70;55.97
76827;BME280;65788;52.284;20.890;2023-08-17T05:46:35;100811.58;;;25.60;56.16
76827;BME280;65788;52.284;20.890;2023-08-17T05:49:04;100813.80;;;25.73;55.81
76827;BME280;65788;52.284;20.890;2023-08-17T05:51:32;100808.18;;;25.76;55.60
76827;BME280;65788;52.284;20.890;2023-08-17T05:53:59;100800.78;;;25.71;55.66
76827;BME280;65788;52.284;20.890;2023-08-17T05:56:27;100801.45;;;25.75;55.51
76827;BME280;65788;52.284;20.890;2023-08-17T05:58:55;100801.73;;;25.71;55.38
76827;BME280;65788;52.284;20.890;2023-08-17T06:01:21;100798.58;;;25.67;55.42
76827;BME280;65788;52.284;20.890;2023-08-17T06:03:48;100798.27;;;25.73;55.34
76827;BME280;65788;52.284;20.890;2023-08-17T06:06:16;100797.14;;;25.75;55.33
76827;BME280;65788;52.284;20.890;2023-08-17T06:08:43;100796.66;;;25.73;55.45
76827;BME280;65788;52.284;20.890;2023-08-17T06:11:12;100798.02;;;25.75;55.37
76827;BME280;65788;52.284;20.890;2023-08-17T06:13:39;100799.98;;;25.75;55.33
76827;BME280;65788;52.284;20.890;2023-08-17T06:16:05;100798.33;;;25.76;55.31
76827;BME280;65788;52.284;20.890;2023-08-17T06:18:32;100797.38;;;25.81;55.25
76827;BME280;65788;52.284;20.890;2023-08-17T06:20:59;100798.99;;;25.83;55.05
76827;BME280;65788;52.284;20.890;2023-08-17T06:23:26;100802.08;;;25.83;54.83
76827;BME280;65788;52.284;20.890;2023-08-17T06:25:57;100801.82;;;25.77;54.80
76827;BME280;65788;52.284;20.890;2023-08-17T06:28:25;100805.55;;;25.80;54.81
76827;BME280;65788;52.284;20.890;2023-08-17T06:30:53;100808.35;;;25.83;54.59
76827;BME280;65788;52.284;20.890;2023-08-17T06:33:21;100805.77;;;25.86;54.49
76827;BME280;65788;52.284;20.890;2023-08-17T06:35:49;100809.65;;;25.86;54.49
76827;BME280;65788;52.284;20.890;2023-08-17T06:38:16;100812.41;;;25.92;54.45
76827;BME280;65788;52.284;20.890;2023-08-17T06:40:44;100816.10;;;25.95;54.44
76827;BME280;65788;52.284;20.890;2023-08-17T06:43:12;100815.05;;;25.95;54.36
76827;BME280;65788;52.284;20.890;2023-08-17T06:45:39;100816.38;;;25.94;54.43
76827;BME280;65788;52.284;20.890;2023-08-17T06:48:06;100820.70;;;25.98;54.51
76827;BME280;65788;52.284;20.890;2023-08-17T06:50:33;100827.77;;;26.01;54.45
76827;BME280;65788;52.284;20.890;2023-08-17T06:53:01;100822.91;;;26.07;55.60
76827;BME280;65788;52.284;20.890;2023-08-17T06:55:28;100819.98;;;26.25;54.10
76827;BME280;65788;52.284;20.890;2023-08-17T06:57:56;100823.47;;;26.33;53.85
76827;BME280;65788;52.284;20.890;2023-08-17T07:00:23;100820.70;;;26.39;53.87
76827;BME280;65788;52.284;20.890;2023-08-17T07:02:50;100824.08;;;26.49;53.44
76827;BME280;65788;52.284;20.890;2023-08-17T07:05:18;100828.09;;;26.60;53.85
76827;BME280;65788;52.284;20.890;2023-08-17T07:07:45;100829.50;;;26.56;53.01
76827;BME280;65788;52.284;20.890;2023-08-17T07:10:12;100835.39;;;26.56;53.51
76827;BME280;65788;52.284;20.890;2023-08-17T07:12:39;100836.86;;;26.65;54.03
76827;BME280;65788;52.284;20.890;2023-08-17T07:15:07;100837.99;;;26.66;53.31
76827;BME280;65788;52.284;20.890;2023-08-17T07:17:34;100840.48;;;26.68;53.31
76827;BME280;65788;52.284;20.890;2023-08-17T07:20:01;100836.83;;;26.70;53.28
76827;BME280;65788;52.284;20.890;2023-08-17T07:22:28;100841.30;;;26.72;53.39
76827;BME280;65788;52.284;20.890;2023-08-17T07:24:55;100843.02;;;26.75;52.88
76827;BME280;65788;52.284;20.890;2023-08-17T07:27:22;100839.88;;;26.83;52.45
76827;BME280;65788;52.284;20.890;2023-08-17T07:29:49;100828.67;;;26.92;52.34
76827;BME280;65788;52.284;20.890;2023-08-17T07:32:15;100830.07;;;26.87;52.32
76827;BME280;65788;52.284;20.890;2023-08-17T07:34:42;100830.83;;;26.94;52.60
76827;BME280;65788;52.284;20.890;2023-08-17T07:37:09;100833.52;;;26.98;52.23
76827;BME280;65788;52.284;20.890;2023-08-17T07:39:36;100830.19;;;27.01;52.35
76827;BME280;65788;52.284;20.890;2023-08-17T07:42:03;100829.30;;;27.03;52.18
76827;BME280;65788;52.284;20.890;2023-08-17T07:44:30;100831.40;;;26.90;52.46
76827;BME280;65788;52.284;20.890;2023-08-17T07:46:58;100829.05;;;26.85;52.62
76827;BME280;65788;52.284;20.890;2023-08-17T07:49:25;100825.54;;;26.83;52.76
76827;BME280;65788;52.284;20.890;2023-08-17T07:51:52;100827.37;;;26.81;52.86
76827;BME280;65788;52.284;20.890;2023-08-17T07:54:18;100829.83;;;26.80;52.97
76827;BME280;65788;52.284;20.890;2023-08-17T07:56:45;100827.12;;;26.75;53.20
76827;BME280;65788;52.284;20.890;2023-08-17T07:59:12;100825.73;;;26.69;53.40
76827;BME280;65788;52.284;20.890;2023-08-17T08:01:38;100826.20;;;26.70;53.39
76827;BME280;65788;52.284;20.890;2023-08-17T08:04:06;100820.64;;;26.70;53.38
76827;BME280;65788;52.284;20.890;2023-08-17T08:06:33;100821.37;;;26.69;53.34
76827;BME280;65788;52.284;20.890;2023-08-17T08:09:00;100823.86;;;26.70;53.36
76827;BME280;65788;52.284;20.890;2023-08-17T08:11:26;100825.39;;;26.76;53.28
76827;BME280;65788;52.284;20.890;2023-08-17T08:13:57;100823.85;;;26.78;53.36
76827;BME280;65788;52.284;20.890;2023-08-17T08:16:24;100828.43;;;26.85;53.24
76827;BME280;65788;52.284;20.890;2023-08-17T08:18:51;100825.11;;;26.85;53.24
76827;BME280;65788;52.284;20.890;2023-08-17T08:21:17;100822.21;;;26.86;53.20
76827;BME280;65788;52.284;20.890;2023-08-17T08:23:44;100826.59;;;26.86;53.30
76827;BME280;65788;52.284;20.890;2023-08-17T08:26:11;100827.31;;;26.85;53.25
76827;BME280;65788;52.284;20.890;2023-08-17T08:28:38;100829.47;;;26.88;53.45
76827;BME280;65788;52.284;20.890;2023-08-17T08:31:04;100832.64;;;26.94;53.11
76827;BME280;65788;52.284;20.890;2023-08-17T08:33:31;100835.01;;;26.95;53.10
76827;BME280;65788;52.284;20.890;2023-08-17T08:35:58;100831.93;;;26.97;53.09
76827;BME280;65788;52.284;20.890;2023-08-17T08:38:24;100833.48;;;26.99;52.88
76827;BME280;65788;52.284;20.890;2023-08-17T08:40:52;100832.35;;;26.99;52.88
76827;BME280;65788;52.284;20.890;2023-08-17T08:43:19;100834.35;;;26.97;52.94
76827;BME280;65788;52.284;20.890;2023-08-17T08:45:46;100832.36;;;26.93;53.10
76827;BME280;65788;52.284;20.890;2023-08-17T08:48:13;100831.23;;;27.00;53.07
76827;BME280;65788;52.284;20.890;2023-08-17T08:50:41;100831.59;;;27.01;52.99
76827;BME280;65788;52.284;20.890;2023-08-17T08:53:14;100826.19;;;27.12;52.66
76827;BME280;65788;52.284;20.890;2023-08-17T08:55:59;100827.10;;;27.13;52.68
76827;BME280;65788;52.284;20.890;2023-08-17T08:58:27;100826.48;;;27.01;52.93
76827;BME280;65788;52.284;20.890;2023-08-17T09:00:57;100826.45;;;26.89;53.27
76827;BME280;65788;52.284;20.890;2023-08-17T09:03:25;100830.46;;;26.90;53.26
76827;BME280;65788;52.284;20.890;2023-08-17T09:05:53;100832.61;;;27.09;53.03
76827;BME280;65788;52.284;20.890;2023-08-17T09:08:25;100835.14;;;27.02;52.97
76827;BME280;65788;52.284;20.890;2023-08-17T09:10:53;100833.55;;;26.96;53.14
76827;BME280;65788;52.284;20.890;2023-08-17T09:13:20;100832.42;;;26.96;53.23
76827;BME280;65788;52.284;20.890;2023-08-17T09:15:47;100828.14;;;27.16;52.92
76827;BME280;65788;52.284;20.890;2023-08-17T09:18:15;100828.22;;;27.29;52.53
76827;BME280;65788;52.284;20.890;2023-08-17T09:20:44;100822.65;;;27.48;52.13
76827;BME280;65788;52.284;20.890;2023-08-17T09:23:16;100820.25;;;27.56;52.68
76827;BME280;65788;52.284;20.890;2023-08-17T09:25:45;100821.98;;;27.62;53.86
76827;BME280;65788;52.284;20.890;2023-08-17T09:28:16;100822.79;;;27.65;54.71
76827;BME280;65788;52.284;20.890;2023-08-17T09:30:54;100823.07;;;27.65;53.48
76827;BME280;65788;52.284;20.890;2023-08-17T09:33:23;100824.48;;;27.73;54.18
76827;BME280;65788;52.284;20.890;2023-08-17T09:35:51;100827.91;;;27.88;53.84
76827;BME280;65788;52.284;20.890;2023-08-17T09:38:19;100824.52;;;27.78;52.67
76827;BME280;65788;52.284;20.890;2023-08-17T09:40:47;100824.00;;;27.69;52.62
76827;BME280;65788;52.284;20.890;2023-08-17T09:43:15;100824.67;;;27.67;52.57
76827;BME280;65788;52.284;20.890;2023-08-17T09:45:44;100822.75;;;27.81;52.85
76827;BME280;65788;52.284;20.890;2023-08-17T09:48:17;100819.61;;;27.83;53.88
76827;BME280;65788;52.284;20.890;2023-08-17T09:50:46;100816.88;;;27.99;54.11
76827;BME280;65788;52.284;20.890;2023-08-17T09:53:15;100813.47;;;28.03;54.05
76827;BME280;65788;52.284;20.890;2023-08-17T09:55:43;100809.52;;;28.01;53.20
76827;BME280;65788;52.284;20.890;2023-08-17T09:58:11;100810.39;;;28.05;53.41
76827;BME280;65788;52.284;20.890;2023-08-17T10:00:49;100811.29;;;28.05;52.71
76827;BME280;65788;52.284;20.890;2023-08-17T10:03:17;100813.30;;;28.01;52.83
76827;BME280;65788;52.284;20.890;2023-08-17T10:05:44;100813.66;;;28.06;52.91
76827;BME280;65788;52.284;20.890;2023-08-17T10:08:13;100814.46;;;28.09;52.54
76827;BME280;65788;52.284;20.890;2023-08-17T10:10:46;100813.60;;;28.14;52.21
76827;BME280;65788;52.284;20.890;2023-08-17T10:13:28;100811.84;;;28.11;52.34
76827;BME280;65788;52.284;20.890;2023-08-17T10:18:54;100803.17;;;28.44;52.50
76827;BME280;65788;52.284;20.890;2023-08-17T10:21:29;100804.79;;;28.51;51.74
76827;BME280;65788;52.284;20.890;2023-08-17T10:23:58;100807.20;;;28.75;50.56
76827;BME280;65788;52.284;20.890;2023-08-17T10:26:25;100806.19;;;28.69;51.06
76827;BME280;65788;52.284;20.890;2023-08-17T10:28:53;100806.83;;;28.64;51.07
76827;BME280;65788;52.284;20.890;2023-08-17T10:31:21;100806.86;;;28.86;50.54
76827;BME280;65788;52.284;20.890;2023-08-17T10:33:48;100801.38;;;28.66;50.37
76827;BME280;65788;52.284;20.890;2023-08-17T10:36:16;100801.02;;;29.23;49.70
76827;BME280;65788;52.284;20.890;2023-08-17T10:38:43;100798.01;;;29.09;48.99
76827;BME280;65788;52.284;20.890;2023-08-17T10:41:14;100799.91;;;28.81;49.42
76827;BME280;65788;52.284;20.890;2023-08-17T10:43:54;100803.27;;;28.70;49.57
76827;BME280;65788;52.284;20.890;2023-08-17T10:46:21;100799.19;;;28.68;49.38
76827;BME280;65788;52.284;20.890;2023-08-17T10:49:02;100798.30;;;28.49;50.01
76827;BME280;65788;52.284;20.890;2023-08-17T10:51:29;100792.74;;;28.54;49.52
76827;BME280;65788;52.284;20.890;2023-08-17T10:53:58;100792.66;;;28.82;47.76
76827;BME280;65788;52.284;20.890;2023-08-17T10:56:28;100792.23;;;28.95;47.12
76827;BME280;65788;52.284;20.890;2023-08-17T10:59:01;100790.67;;;28.82;47.57
76827;BME280;65788;52.284;20.890;2023-08-17T11:01:35;100793.89;;;28.68;48.28
76827;BME280;65788;52.284;20.890;2023-08-17T11:04:32;100793.34;;;28.47;49.47
76827;BME280;65788;52.284;20.890;2023-08-17T11:07:02;100786.16;;;28.50;48.74
76827;BME280;65788;52.284;20.890;2023-08-17T11:09:30;100790.20;;;28.51;48.99
76827;BME280;65788;52.284;20.890;2023-08-17T11:11:59;100786.54;;;28.49;48.69
76827;BME280;65788;52.284;20.890;2023-08-17T11:14:33;100782.17;;;28.57;48.46
76827;BME280;65788;52.284;20.890;2023-08-17T11:16:59;100775.68;;;28.76;47.04
76827;BME280;65788;52.284;20.890;2023-08-17T11:19:26;100777.73;;;28.81;46.80
76827;BME280;65788;52.284;20.890;2023-08-17T11:21:53;100773.63;;;28.69;47.55
76827;BME280;65788;52.284;20.890;2023-08-17T11:24:21;100770.40;;;28.57;48.05
76827;BME280;65788;52.284;20.890;2023-08-17T11:26:48;100766.81;;;28.55;48.26
76827;BME280;65788;52.284;20.890;2023-08-17T11:29:15;100771.86;;;28.52;48.28
76827;BME280;65788;52.284;20.890;2023-08-17T11:31:41;100768.16;;;28.41;49.00
76827;BME280;65788;52.284;20.890;2023-08-17T11:34:08;100773.44;;;28.53;48.71
76827;BME280;65788;52.284;20.890;2023-08-17T11:36:40;100772.10;;;28.56;48.58
76827;BME280;65788;52.284;20.890;2023-08-17T11:39:07;100774.89;;;28.64;48.52
76827;BME280;65788;52.284;20.890;2023-08-17T11:41:34;100764.21;;;28.57;48.50
76827;BME280;65788;52.284;20.890;2023-08-17T11:44:01;100764.61;;;28.71;48.51
76827;BME280;65788;52.284;20.890;2023-08-17T11:46:29;100769.10;;;28.78;48.76
76827;BME280;65788;52.284;20.890;2023-08-17T11:48:59;100769.66;;;28.72;48.60
76827;BME280;65788;52.284;20.890;2023-08-17T11:51:32;100763.10;;;28.89;48.36
76827;BME280;65788;52.284;20.890;2023-08-17T11:53:59;100764.92;;;29.05;48.75
76827;BME280;65788;52.284;20.890;2023-08-17T11:56:27;100763.08;;;29.13;47.66
76827;BME280;65788;52.284;20.890;2023-08-17T11:58:54;100762.17;;;29.17;47.25
76827;BME280;65788;52.284;20.890;2023-08-17T12:01:20;100764.08;;;29.26;46.55
76827;BME280;65788;52.284;20.890;2023-08-17T12:03:48;100756.66;;;29.18;46.85
76827;BME280;65788;52.284;20.890;2023-08-17T12:06:16;100759.25;;;29.20;46.30
76827;BME280;65788;52.284;20.890;2023-08-17T12:08:45;100760.77;;;29.11;46.23
76827;BME280;65788;52.284;20.890;2023-08-17T12:11:12;100754.90;;;29.06;46.48
76827;BME280;65788;52.284;20.890;2023-08-17T12:13:38;100757.39;;;29.19;46.48
76827;BME280;65788;52.284;20.890;2023-08-17T12:16:05;100756.16;;;29.21;45.43
76827;BME280;65788;52.284;20.890;2023-08-17T12:18:33;100754.30;;;29.17;45.74
76827;BME280;65788;52.284;20.890;2023-08-17T12:21:00;100756.54;;;29.15;45.38
76827;BME280;65788;52.284;20.890;2023-08-17T12:23:28;100758.42;;;29.24;44.63
76827;BME280;65788;52.284;20.890;2023-08-17T12:25:55;100757.22;;;29.17;45.23
76827;BME280;65788;52.284;20.890;2023-08-17T12:28:23;100750.92;;;29.25;44.74
76827;BME280;65788;52.284;20.890;2023-08-17T12:30:58;100748.33;;;29.24;45.65
76827;BME280;65788;52.284;20.890;2023-08-17T12:33:26;100751.35;;;29.07;46.05
76827;BME280;65788;52.284;20.890;2023-08-17T12:35:53;100748.08;;;29.09;46.48
76827;BME280;65788;52.284;20.890;2023-08-17T12:38:23;100750.90;;;29.10;45.69
76827;BME280;65788;52.284;20.890;2023-08-17T12:40:50;100748.09;;;29.17;45.68
76827;BME280;65788;52.284;20.890;2023-08-17T12:43:17;100746.13;;;29.21;45.39
76827;BME280;65788;52.284;20.890;2023-08-17T12:45:44;100744.86;;;29.36;45.14
76827;BME280;65788;52.284;20.890;2023-08-17T12:48:11;100746.70;;;29.25;44.86